Time;durP1;ratioP1;P1;durP2;ratioP2;P2;SDS_P1;SDS_P2;PMS_P1;PMS_P2;Temp;Humidity;BMP_temperature;BMP_pressure;BME280_temperature;BME280_humidity;BME280_pressure;Samples;Min_cycle;Max_cycle;Signal;HPM_P1;HPM_P2
2022/02/04 00:28:28;;;;;;;7.15;3.35;;;8.70;99.90;;;;;;5056895;28;20039;-49
2022/02/04 00:31:33;;;;;;;6.57;2.92;;;8.70;99.90;;;;;;5063214;28;20052;-49
2022/02/04 00:33:48;;;;;;;6.68;3.15;;;8.70;99.90;;;;;;5065137;28;20060;-49
2022/02/04 00:36:26;;;;;;;6.80;2.85;;;8.70;99.90;;;;;;5059053;28;20044;-49
2022/02/04 00:38:55;;;;;;;4.35;2.45;;;8.70;99.90;;;;;;5062111;28;20029;-49
2022/02/04 00:41:25;;;;;;;4.65;2.47;;;8.70;99.90;;;;;;5059930;28;20029;-49
2022/02/04 00:43:53;;;;;;;5.75;3.55;;;8.60;99.90;;;;;;5061240;28;20064;-49
2022/02/04 00:46:26;;;;;;;7.00;3.17;;;8.70;99.90;;;;;;5061349;28;20025;-49
2022/02/04 00:54:26;;;;;;;6.97;3.17;;;8.60;99.90;;;;;;5064585;28;20446;-49
2022/02/04 01:26:46;;;;;;;4.20;2.03;;;8.60;99.90;;;;;;5059475;28;20076;-49
2022/02/04 01:29:12;;;;;;;4.40;2.35;;;8.60;99.90;;;;;;5059231;28;20044;-49
2022/02/04 01:31:38;;;;;;;4.80;2.20;;;8.50;99.90;;;;;;5060264;28;20360;-49
2022/02/04 01:34:04;;;;;;;3.70;2.03;;;8.50;99.90;;;;;;5058854;28;20099;-49
2022/02/04 01:36:29;;;;;;;3.95;1.85;;;8.60;99.90;;;;;;5061067;28;20107;-49
2022/02/04 01:38:55;;;;;;;4.50;2.30;;;8.50;99.90;;;;;;5060324;28;20112;-49
2022/02/04 01:41:21;;;;;;;5.40;1.95;;;8.50;99.90;;;;;;5061509;28;20104;-49
2022/02/04 01:43:48;;;;;;;8.60;2.53;;;8.50;99.90;;;;;;5054889;28;20358;-49
2022/02/04 01:46:14;;;;;;;7.78;2.97;;;8.50;99.90;;;;;;5061579;28;20025;-49
2022/02/04 01:48:41;;;;;;;4.75;2.47;;;8.50;99.90;;;;;;5060095;28;20121;-49
2022/02/04 01:51:08;;;;;;;7.85;3.83;;;8.50;99.90;;;;;;5060627;28;20075;-49
2022/02/04 01:53:35;;;;;;;5.53;2.63;;;8.50;99.90;;;;;;5061733;28;20036;-49
2022/02/04 01:56:04;;;;;;;8.02;3.35;;;8.50;99.90;;;;;;5060827;28;20021;-49
2022/02/04 01:58:30;;;;;;;4.57;1.92;;;8.50;99.90;;;;;;5055445;28;20108;-49
2022/02/04 02:00:56;;;;;;;4.63;2.55;;;8.50;99.90;;;;;;5056780;28;20625;-49
2022/02/04 02:03:22;;;;;;;2.90;1.88;;;8.50;99.90;;;;;;5060985;28;20354;-49
2022/02/04 02:05:49;;;;;;;3.28;2.22;;;8.50;99.90;;;;;;5055117;28;20036;-49
2022/02/04 02:08:18;;;;;;;5.28;2.28;;;8.50;99.90;;;;;;5061371;28;20025;-49
2022/02/04 02:10:46;;;;;;;3.20;1.88;;;8.50;99.90;;;;;;5061813;28;20069;-49
2022/02/04 02:56:52;;;;;;;5.82;2.40;;;8.40;99.90;;;;;;5065862;28;20422;-49
2022/02/04 02:59:10;;;;;;;3.20;2.13;;;8.40;99.90;;;;;;5061996;28;20120;-49
2022/02/04 03:01:35;;;;;;;4.70;1.90;;;8.40;99.90;;;;;;5064659;28;20028;-49
2022/02/04 03:04:06;;;;;;;2.22;1.70;;;8.40;99.90;;;;;;5067253;28;20268;-49
2022/02/04 03:06:32;;;;;;;2.75;2.22;;;8.40;99.90;;;;;;5065047;28;20061;-49
2022/02/04 03:08:58;;;;;;;4.15;2.00;;;8.40;99.90;;;;;;5065510;28;20123;-49
2022/02/04 03:11:23;;;;;;;5.93;2.67;;;8.40;99.90;;;;;;5063742;28;20025;-49
2022/02/04 03:13:49;;;;;;;5.07;2.22;;;8.40;99.90;;;;;;5060561;28;20028;-49
2022/02/04 03:16:18;;;;;;;6.18;2.40;;;8.40;99.90;;;;;;5066946;28;20127;-49
2022/02/04 03:18:48;;;;;;;3.03;1.95;;;8.40;99.90;;;;;;5068045;28;20346;-49
2022/02/04 03:21:17;;;;;;;7.82;2.65;;;8.40;99.90;;;;;;5066278;28;20029;-49
2022/02/04 03:23:50;;;;;;;3.35;2.10;;;8.40;99.90;;;;;;5065494;28;20432;-49
2022/02/04 03:27:06;;;;;;;4.30;2.10;;;8.40;99.90;;;;;;5063781;28;20033;-49
2022/02/04 03:29:02;;;;;;;2.95;2.22;;;8.40;99.90;;;;;;5067635;28;20044;-49
2022/02/04 03:31:32;;;;;;;4.38;2.00;;;8.40;99.90;;;;;;5064981;28;20099;-49
2022/02/04 03:33:58;;;;;;;3.22;1.63;;;8.40;99.90;;;;;;5066484;28;20052;-49
2022/02/04 03:36:24;;;;;;;5.10;2.17;;;8.40;99.90;;;;;;5068260;28;20056;-49
2022/02/04 03:38:49;;;;;;;3.30;1.88;;;8.40;99.90;;;;;;5065209;28;20036;-49
2022/02/04 03:41:15;;;;;;;2.63;1.70;;;8.40;99.90;;;;;;5054692;28;20032;-49
2022/02/04 03:43:40;;;;;;;4.05;2.15;;;8.40;99.90;;;;;;5055172;28;20041;-49
2022/02/04 03:46:06;;;;;;;4.35;2.65;;;8.40;99.90;;;;;;5064106;28;20024;-49
2022/02/04 03:48:33;;;;;;;4.78;2.20;;;8.40;99.90;;;;;;5064350;28;20024;-49
2022/02/04 03:50:59;;;;;;;3.92;2.20;;;8.40;99.90;;;;;;5061892;28;20438;-49
2022/02/04 03:53:25;;;;;;;3.65;2.33;;;8.40;99.90;;;;;;5062439;28;20127;-49
2022/02/04 03:55:50;;;;;;;4.95;2.30;;;8.40;99.90;;;;;;5062444;28;20078;-49
2022/02/04 03:58:16;;;;;;;6.45;2.38;;;8.40;99.90;;;;;;5054689;28;20181;-49
2022/02/04 04:00:42;;;;;;;9.30;2.95;;;8.40;99.90;;;;;;5059995;28;20032;-49
2022/02/04 04:03:08;;;;;;;3.13;2.08;;;8.40;99.90;;;;;;5063942;28;20033;-49
2022/02/04 04:05:38;;;;;;;4.95;2.38;;;8.40;99.90;;;;;;5059978;28;20051;-49
2022/02/04 04:08:04;;;;;;;3.35;2.13;;;8.40;99.90;;;;;;5064257;28;20339;-49
2022/02/04 04:10:37;;;;;;;3.70;2.30;;;8.40;99.90;;;;;;5057377;28;20040;-50
2022/02/04 04:13:03;;;;;;;5.00;2.35;;;8.40;99.90;;;;;;5055361;28;20048;-49
2022/02/04 04:15:29;;;;;;;7.07;2.50;;;8.40;99.90;;;;;;5060226;28;20029;-49
2022/02/04 04:17:54;;;;;;;7.00;2.58;;;8.40;99.90;;;;;;5062842;28;20033;-49
2022/02/04 04:20:26;;;;;;;3.78;2.20;;;8.40;99.90;;;;;;5059836;28;20021;-49
2022/02/04 04:22:53;;;;;;;7.38;2.35;;;8.40;99.90;;;;;;5062448;28;20294;-49
2022/02/04 04:25:19;;;;;;;3.88;2.55;;;8.40;99.90;;;;;;5063843;28;20109;-49
2022/02/04 04:27:49;;;;;;;4.63;2.30;;;8.40;99.90;;;;;;5061336;28;20470;-49
2022/02/04 04:30:21;;;;;;;4.72;2.10;;;8.40;99.90;;;;;;5054794;28;20021;-49
2022/02/04 04:32:47;;;;;;;9.15;7.13;;;8.40;99.90;;;;;;5061136;28;20044;-49
2022/02/04 04:35:15;;;;;;;6.00;2.28;;;8.40;99.90;;;;;;5058135;28;20048;-49
2022/02/04 04:42:53;;;;;;;5.35;2.85;;;8.40;99.90;;;;;;5059627;28;19999;-49
2022/02/04 05:29:13;;;;;;;9.50;2.88;;;8.40;99.90;;;;;;5058876;28;20453;-49
2022/02/04 05:31:39;;;;;;;6.82;3.10;;;8.40;99.90;;;;;;5056161;28;20025;-49
2022/02/04 05:34:04;;;;;;;5.05;3.15;;;8.40;99.90;;;;;;5061643;28;20036;-49
2022/02/04 05:36:34;;;;;;;4.82;2.65;;;8.40;99.90;;;;;;5059943;28;20032;-49
2022/02/04 05:39:00;;;;;;;3.47;2.38;;;8.40;99.90;;;;;;5062116;28;20036;-49
2022/02/04 05:41:32;;;;;;;5.70;3.13;;;8.40;99.90;;;;;;5059924;28;20029;-49
2022/02/04 05:44:02;;;;;;;5.95;3.10;;;8.40;99.90;;;;;;5059210;28;20079;-49
2022/02/04 05:46:32;;;;;;;6.15;3.42;;;8.50;99.90;;;;;;5065598;28;20029;-49
2022/02/04 05:48:59;;;;;;;4.57;3.17;;;8.40;99.90;;;;;;5060583;28;20422;-49
2022/02/04 05:54:11;;;;;;;5.75;3.55;;;8.40;99.90;;;;;;5058906;28;20119;-49
2022/02/04 06:04:53;;;;;;;9.32;3.97;;;8.40;99.90;;;;;;5054707;28;20040;-49
2022/02/04 06:23:09;;;;;;;6.07;3.45;;;8.50;99.90;;;;;;5060670;28;20373;-49
2022/02/04 06:25:35;;;;;;;11.82;4.22;;;8.50;99.90;;;;;;5059728;28;20033;-49
2022/02/04 06:28:00;;;;;;;4.60;3.35;;;8.50;99.90;;;;;;5058542;28;20352;-49
2022/02/04 06:30:26;;;;;;;6.55;3.50;;;8.50;99.90;;;;;;5053495;28;20036;-49
2022/02/04 06:32:52;;;;;;;5.68;3.53;;;8.50;99.90;;;;;;5060875;28;20021;-49
2022/02/04 06:35:17;;;;;;;6.85;3.33;;;8.50;99.90;;;;;;5060899;28;20111;-49
2022/02/04 06:37:43;;;;;;;6.47;3.60;;;8.50;99.90;;;;;;5060047;28;20454;-49
2022/02/04 06:40:09;;;;;;;4.93;2.97;;;8.50;99.90;;;;;;5057192;28;20077;-49
2022/02/04 06:42:35;;;;;;;4.70;3.10;;;8.40;99.90;;;;;;5060256;28;20116;-49
2022/02/04 06:45:02;;;;;;;6.43;3.05;;;8.50;99.90;;;;;;5055070;28;20435;-49
2022/02/04 06:47:28;;;;;;;5.13;2.58;;;8.50;99.90;;;;;;5056306;28;20130;-49
2022/02/04 06:49:54;;;;;;;9.05;4.20;;;8.50;99.90;;;;;;5056440;28;20116;-49
2022/02/04 06:52:19;;;;;;;11.50;4.57;;;8.40;99.90;;;;;;5059170;28;20024;-49
2022/02/04 06:54:45;;;;;;;7.05;3.65;;;8.50;99.90;;;;;;5053088;28;20294;-49
2022/02/04 06:57:10;;;;;;;5.85;2.80;;;8.50;99.90;;;;;;5058784;28;20028;-49
2022/02/04 06:59:38;;;;;;;3.45;2.22;;;8.50;99.90;;;;;;5057157;28;21197;-49
2022/02/04 07:02:04;;;;;;;8.50;2.40;;;8.50;99.90;;;;;;5056727;28;20369;-49
2022/02/04 07:04:33;;;;;;;6.00;2.72;;;8.50;99.90;;;;;;5058415;28;20040;-48
2022/02/04 07:07:00;;;;;;;3.53;2.50;;;8.50;99.90;;;;;;5053857;28;20466;-49
2022/02/04 07:10:13;;;;;;;4.95;2.83;;;8.50;99.90;;;;;;5060539;28;20446;-49
2022/02/04 07:12:21;;;;;;;3.10;1.30;;;8.50;99.90;;;;;;5055407;28;20128;-49
2022/02/04 07:15:45;;;;;;;3.92;2.42;;;8.50;99.90;;;;;;5059139;28;20072;-49
2022/02/04 07:20:01;;;;;;;4.70;2.35;;;8.50;99.90;;;;;;5058967;28;20047;-49
2022/02/04 07:22:31;;;;;;;4.57;2.55;;;8.50;99.90;;;;;;5056996;28;20045;-49
2022/02/04 07:24:59;;;;;;;7.75;3.92;;;8.50;99.90;;;;;;5063512;28;20025;-49
2022/02/04 07:27:29;;;;;;;9.73;3.15;;;8.50;99.90;;;;;;5060499;28;20036;-49
2022/02/04 07:29:55;;;;;;;8.82;3.40;;;8.50;99.90;;;;;;5061011;28;20116;-49
2022/02/04 07:42:50;;;;;;;9.07;4.43;;;8.50;99.90;;;;;;5062564;28;20055;-48
2022/02/04 07:45:15;;;;;;;6.85;2.65;;;8.50;99.90;;;;;;5060886;28;20442;-49
2022/02/04 07:47:41;;;;;;;7.32;3.40;;;8.50;99.90;;;;;;5060924;28;20021;-49
2022/02/04 07:50:08;;;;;;;12.85;5.38;;;8.50;99.90;;;;;;5063308;28;20557;-49
2022/02/04 07:52:34;;;;;;;11.23;4.88;;;8.50;99.90;;;;;;5059252;28;20047;-50
2022/02/04 07:55:00;;;;;;;8.18;4.63;;;8.50;99.90;;;;;;5060007;28;20054;-49
2022/02/04 07:57:25;;;;;;;12.35;5.03;;;8.50;99.90;;;;;;5062390;28;20143;-50
2022/02/04 07:59:52;;;;;;;6.50;3.45;;;8.50;99.90;;;;;;5062706;28;20485;-49
2022/02/04 08:02:18;;;;;;;2.67;1.88;;;8.50;99.90;;;;;;5062720;28;20039;-49
2022/02/04 08:04:46;;;;;;;4.78;2.55;;;8.50;99.90;;;;;;5064050;28;20119;-49
2022/02/04 08:07:12;;;;;;;9.18;3.60;;;8.50;99.90;;;;;;5064074;28;20017;-49
2022/02/04 08:18:47;;;;;;;9.40;4.10;;;8.50;99.90;;;;;;5063493;28;20449;-49
2022/02/04 08:20:35;;;;;;;7.97;3.65;;;8.50;99.90;;;;;;5070599;28;20036;-50
2022/02/04 08:54:09;;;;;;;7.15;4.03;;;8.60;99.90;;;;;;5063328;28;20056;-49
2022/02/04 08:56:46;;;;;;;11.57;5.20;;;8.60;99.90;;;;;;5061432;28;20037;-49
2022/02/04 08:59:18;;;;;;;11.77;4.78;;;8.60;99.90;;;;;;5061039;28;20036;-49
2022/02/04 09:01:58;;;;;;;5.97;3.85;;;8.60;99.90;;;;;;5055779;28;20025;-49
2022/02/04 09:04:32;;;;;;;1.30;1.20;;;8.60;99.90;;;;;;5059495;28;20083;-49
2022/02/04 09:07:04;;;;;;;12.85;4.70;;;8.60;99.90;;;;;;5060604;28;20322;-49
2022/02/04 09:09:48;;;;;;;9.48;5.25;;;8.60;99.90;;;;;;5067800;28;20103;-49
2022/02/04 09:18:51;;;;;;;9.73;4.65;;;8.70;99.90;;;;;;5057268;28;20362;-49
2022/02/04 09:23:08;;;;;;;11.75;5.00;;;8.70;99.90;;;;;;5062095;28;20036;-49
2022/02/04 09:25:34;;;;;;;5.43;3.63;;;8.70;99.90;;;;;;5060415;28;20482;-49
2022/02/04 09:28:00;;;;;;;8.02;3.55;;;8.70;99.90;;;;;;5061033;28;20036;-49
2022/02/04 09:30:25;;;;;;;11.10;5.32;;;8.70;99.90;;;;;;5062875;28;20020;-49
2022/02/04 09:32:51;;;;;;;8.88;4.47;;;8.70;99.90;;;;;;5055468;28;20032;-49
2022/02/04 09:35:22;;;;;;;9.75;4.18;;;8.70;99.90;;;;;;5060671;28;20060;-49
2022/02/04 09:37:48;;;;;;;10.25;2.47;;;8.70;99.90;;;;;;5059357;28;20144;-49
2022/02/04 09:40:15;;;;;;;7.78;3.97;;;8.70;99.90;;;;;;5061484;28;20032;-49
2022/02/04 09:42:43;;;;;;;5.50;3.95;;;8.80;99.90;;;;;;5058917;28;20405;-48
2022/02/04 09:45:11;;;;;;;1.98;1.48;;;8.80;99.90;;;;;;5064117;28;20235;-49
2022/02/04 09:47:39;;;;;;;6.50;3.28;;;8.80;99.90;;;;;;5055168;28;20535;-49
2022/02/04 09:50:12;;;;;;;3.25;2.13;;;8.80;99.90;;;;;;5060084;28;20033;-49
2022/02/04 10:07:54;;;;;;;9.63;3.50;;;9.00;99.90;;;;;;5062230;28;20043;-49
2022/02/04 10:15:43;;;;;;;5.72;3.47;;;9.00;99.90;;;;;;5061938;28;20389;-49
2022/02/04 10:18:29;;;;;;;7.15;3.15;;;9.00;99.90;;;;;;5059038;28;20478;-49
2022/02/04 10:21:10;;;;;;;7.85;2.90;;;9.10;99.90;;;;;;5059611;28;20028;-49
2022/02/04 10:23:52;;;;;;;2.03;1.23;;;9.10;99.90;;;;;;5059177;28;20044;-50
2022/02/04 10:26:20;;;;;;;4.72;2.53;;;9.20;99.90;;;;;;5059618;28;20117;-49
2022/02/04 10:28:46;;;;;;;0.30;0.30;;;9.20;99.90;;;;;;5060996;28;20029;-49
2022/02/04 10:31:21;;;;;;;5.00;2.88;;;9.20;99.90;;;;;;5049811;28;20332;-49
2022/02/04 10:34:12;;;;;;;4.25;1.92;;;9.20;99.90;;;;;;5050406;28;20036;-49
2022/02/04 10:37:02;;;;;;;6.35;2.83;;;9.20;99.90;;;;;;5053560;28;20029;-49
2022/02/04 10:47:48;;;;;;;0.50;0.50;;;9.20;99.90;;;;;;5054165;28;20049;-49
2022/02/04 10:51:34;;;;;;;4.80;1.77;;;9.20;99.90;;;;;;5064202;28;20397;-49
2022/02/04 11:03:42;;;;;;;2.20;1.35;;;9.30;99.90;;;;;;5058614;28;20033;-49
2022/02/04 11:21:59;;;;;;;6.43;3.15;;;9.30;99.90;;;;;;5063578;28;20504;-49
2022/02/04 11:35:56;;;;;;;14.10;3.17;;;9.40;99.90;;;;;;5064111;28;20056;-49
2022/02/04 11:55:02;;;;;;;1.90;1.65;;;9.40;99.90;;;;;;5063763;28;20039;-49
2022/02/04 11:57:34;;;;;;;0.22;0.22;;;9.40;99.90;;;;;;5062610;28;20032;-49
2022/02/04 12:00:18;;;;;;;11.80;2.83;;;9.40;99.90;;;;;;5061765;28;20029;-49
2022/02/04 12:02:45;;;;;;;4.07;1.55;;;9.40;99.90;;;;;;5057410;28;20032;-49
2022/02/04 12:05:17;;;;;;;6.90;2.95;;;9.40;99.90;;;;;;5058440;28;20366;-49
2022/02/04 12:07:48;;;;;;;8.07;3.40;;;9.40;99.90;;;;;;5061199;28;20029;-49
2022/02/04 12:10:13;;;;;;;9.13;3.28;;;9.40;99.90;;;;;;5063491;28;20032;-49
2022/02/04 12:12:59;;;;;;;3.97;2.22;;;9.40;99.90;;;;;;5062204;28;20074;-49
2022/02/04 12:15:30;;;;;;;4.65;3.28;;;9.40;99.90;;;;;;5056100;28;20033;-49
2022/02/04 12:18:06;;;;;;;11.15;3.97;;;9.40;99.90;;;;;;5058729;28;20455;-49
2022/02/04 12:20:51;;;;;;;9.05;3.65;;;9.40;99.90;;;;;;5061599;28;20437;-49
2022/02/04 12:23:32;;;;;;;7.45;3.45;;;9.40;99.90;;;;;;5061283;28;20040;-49
2022/02/04 12:26:12;;;;;;;5.88;3.17;;;9.40;99.90;;;;;;5061061;28;20422;-49
2022/02/04 12:28:48;;;;;;;6.32;3.42;;;9.40;99.90;;;;;;5061432;28;20331;-48
2022/02/04 12:31:24;;;;;;;5.15;2.15;;;9.40;99.90;;;;;;5058376;28;20299;-49
2022/02/04 12:34:12;;;;;;;1.17;1.05;;;9.40;99.90;;;;;;5058804;28;20037;-49
2022/02/04 12:36:47;;;;;;;5.63;3.20;;;9.40;99.90;;;;;;5061780;28;20028;-49
2022/02/04 12:39:17;;;;;;;0.68;0.57;;;9.40;99.90;;;;;;5066411;28;20087;-49
2022/02/04 12:41:54;;;;;;;5.13;2.07;;;9.40;99.90;;;;;;5058974;28;20024;-49
2022/02/04 12:44:25;;;;;;;1.95;0.65;;;9.40;99.90;;;;;;5062899;28;20362;-49
2022/02/04 12:46:54;;;;;;;5.22;2.97;;;9.40;99.90;;;;;;5060933;28;20029;-49
2022/02/04 12:49:21;;;;;;;2.92;1.88;;;9.40;99.90;;;;;;5057226;28;20082;-49
2022/02/04 12:51:58;;;;;;;5.63;2.92;;;9.40;99.90;;;;;;5060627;28;20170;-50
2022/02/04 12:54:31;;;;;;;5.00;1.05;;;9.40;99.90;;;;;;5059637;28;20050;-49
2022/02/04 13:00:00;;;;;;;0.45;0.40;;;9.40;99.90;;;;;;5062891;28;20028;-49
2022/02/04 13:07:51;;;;;;;2.78;1.40;;;9.40;99.90;;;;;;5060505;28;20412;-49
2022/02/04 13:10:26;;;;;;;4.53;2.97;;;9.40;99.90;;;;;;5062398;28;20017;-50
2022/02/04 13:12:59;;;;;;;2.67;1.60;;;9.40;99.90;;;;;;5061721;28;20103;-49
2022/02/04 13:15:27;;;;;;;3.92;1.15;;;9.40;99.90;;;;;;5063137;28;20036;-50
2022/02/04 13:17:54;;;;;;;5.40;1.63;;;9.40;99.90;;;;;;5061965;28;20108;-49
2022/02/04 13:20:24;;;;;;;1.63;1.23;;;9.40;99.90;;;;;;5063128;28;20055;-49
2022/02/04 13:22:52;;;;;;;5.43;2.92;;;9.40;99.90;;;;;;5062250;28;20074;-49
2022/02/04 13:25:24;;;;;;;5.03;2.30;;;9.40;99.90;;;;;;5061935;28;20043;-49
2022/02/04 13:28:06;;;;;;;1.92;1.42;;;9.40;99.90;;;;;;5060130;28;20090;-49
2022/02/04 13:30:34;;;;;;;1.88;1.20;;;9.40;99.90;;;;;;5061888;28;20028;-49
2022/02/04 13:33:01;;;;;;;7.97;3.17;;;9.40;99.90;;;;;;5060595;28;20029;-49
2022/02/04 13:35:38;;;;;;;2.72;1.77;;;9.40;99.90;;;;;;5058824;28;20044;-49
2022/02/04 13:38:24;;;;;;;6.53;2.35;;;9.40;99.90;;;;;;5062296;28;20027;-49
2022/02/04 13:46:12;;;;;;;6.07;2.08;;;9.40;99.90;;;;;;5059044;28;20029;-49
2022/02/04 13:51:49;;;;;;;4.05;1.98;;;9.40;99.90;;;;;;5075035;28;20040;-49
2022/02/04 13:54:32;;;;;;;8.95;2.95;;;9.40;99.90;;;;;;5062644;28;20107;-49
2022/02/04 14:00:00;;;;;;;5.65;2.08;;;9.40;99.90;;;;;;5062352;28;20020;-49
2022/02/04 14:02:33;;;;;;;3.08;1.38;;;9.40;99.90;;;;;;5061475;28;20149;-49
2022/02/04 14:05:00;;;;;;;7.97;2.88;;;9.40;99.90;;;;;;5056587;28;20340;-49
2022/02/04 14:07:51;;;;;;;6.13;3.13;;;9.40;99.90;;;;;;5059618;28;20028;-49
2022/02/04 14:10:30;;;;;;;4.95;2.45;;;9.40;99.90;;;;;;5060234;28;20071;-49
2022/02/04 14:13:05;;;;;;;8.50;2.30;;;9.40;99.90;;;;;;5058990;28;20752;-49
2022/02/04 14:15:33;;;;;;;2.70;1.83;;;9.40;99.90;;;;;;5059636;28;20264;-49
2022/02/04 14:18:08;;;;;;;4.38;1.70;;;9.40;99.90;;;;;;5061763;28;20346;-49
2022/02/04 14:20:36;;;;;;;2.78;2.08;;;9.40;99.90;;;;;;5056104;28;20033;-49
2022/02/04 14:23:03;;;;;;;5.65;3.25;;;9.40;99.90;;;;;;5060351;28;20056;-49
2022/02/04 14:25:29;;;;;;;7.85;2.65;;;9.40;99.90;;;;;;5061427;28;20056;-49
2022/02/04 14:27:59;;;;;;;3.05;1.70;;;9.40;99.90;;;;;;5059314;28;20455;-49
2022/02/04 14:30:30;;;;;;;2.28;1.42;;;9.40;99.90;;;;;;5059786;28;20032;-49
2022/02/04 14:34:02;;;;;;;5.50;1.80;;;9.40;99.90;;;;;;5058917;28;20520;-49
2022/02/04 14:35:53;;;;;;;1.65;1.30;;;9.40;99.90;;;;;;5053865;28;20032;-49
2022/02/04 14:51:54;;;;;;;0.93;0.75;;;9.40;99.90;;;;;;5056939;28;20056;-49
2022/02/04 15:03:13;;;;;;;3.50;1.88;;;9.40;99.80;;;;;;5066806;28;20405;-49
2022/02/04 15:05:45;;;;;;;3.58;1.92;;;9.40;99.70;;;;;;5064668;28;20111;-49
2022/02/04 15:08:15;;;;;;;3.47;1.70;;;9.40;99.70;;;;;;5067752;28;20043;-49
2022/02/04 15:10:43;;;;;;;1.33;1.20;;;9.40;99.70;;;;;;5067566;28;20378;-49
2022/02/04 15:13:14;;;;;;;6.22;1.90;;;9.40;99.80;;;;;;5066879;28;20030;-49
2022/02/04 15:15:41;;;;;;;1.17;1.02;;;9.40;99.70;;;;;;5066943;28;20055;-49
2022/02/04 15:18:07;;;;;;;2.08;1.67;;;9.40;99.80;;;;;;5067195;28;20021;-49
2022/02/04 15:20:33;;;;;;;4.00;1.85;;;9.40;99.70;;;;;;5062621;28;20032;-49
2022/02/04 15:22:59;;;;;;;5.35;1.45;;;9.40;99.60;;;;;;5066326;28;20119;-49
2022/02/04 15:25:24;;;;;;;1.38;1.27;;;9.40;99.60;;;;;;5067298;28;20020;-49
2022/02/04 15:30:29;;;;;;;3.17;1.45;;;9.40;99.40;;;;;;5067022;28;20113;-49
2022/02/04 15:32:56;;;;;;;5.68;1.48;;;9.40;98.80;;;;;;5064355;28;20044;-49
2022/02/04 15:35:22;;;;;;;6.63;2.05;;;9.40;99.10;;;;;;5055995;28;20029;-49
2022/02/04 15:37:47;;;;;;;1.55;1.08;;;9.30;99.20;;;;;;5064303;28;20093;-49
2022/02/04 15:40:13;;;;;;;5.32;2.25;;;9.30;99.00;;;;;;5064623;28;20024;-49
2022/02/04 15:42:44;;;;;;;1.83;1.00;;;9.30;99.00;;;;;;5061438;28;20190;-49
2022/02/04 15:49:01;;;;;;;3.53;1.55;;;9.30;99.10;;;;;;5064025;28;20020;-49
2022/02/04 16:01:23;;;;;;;4.05;1.80;;;9.30;99.00;;;;;;5062203;28;20112;-50
2022/02/04 16:04:06;;;;;;;8.73;1.30;;;9.30;99.00;;;;;;5061862;28;20059;-49
2022/02/04 16:06:32;;;;;;;3.15;1.80;;;9.30;99.00;;;;;;5056677;28;20052;-49
2022/02/04 16:08:58;;;;;;;1.98;1.30;;;9.30;99.20;;;;;;5064578;28;20024;-49
2022/02/04 16:16:48;;;;;;;1.23;1.13;;;9.30;99.10;;;;;;5061330;28;20082;-49
2022/02/04 16:19:27;;;;;;;3.05;1.63;;;9.30;99.20;;;;;;5062641;28;20055;-49
2022/02/04 16:24:45;;;;;;;1.55;1.45;;;9.30;99.10;;;;;;5063182;28;20028;-49
2022/02/04 16:29:49;;;;;;;1.95;1.42;;;9.30;99.20;;;;;;5064063;28;20050;-49
2022/02/04 16:32:16;;;;;;;2.92;1.70;;;9.20;99.20;;;;;;5062679;28;20409;-49
2022/02/04 16:34:42;;;;;;;1.52;1.25;;;9.30;99.30;;;;;;5058157;28;20151;-49
2022/02/04 16:37:17;;;;;;;1.25;1.15;;;9.20;99.20;;;;;;5057849;28;20175;-49
2022/02/04 16:39:45;;;;;;;3.17;1.95;;;9.20;99.20;;;;;;5061502;28;20029;-49
2022/02/04 16:42:15;;;;;;;1.52;1.40;;;9.20;99.30;;;;;;5061901;28;20024;-49
2022/02/04 16:44:41;;;;;;;1.90;1.35;;;9.20;99.20;;;;;;5064022;28;20357;-49
2022/02/04 16:47:08;;;;;;;3.83;2.17;;;9.20;99.10;;;;;;5060834;28;20063;-49
2022/02/04 16:49:35;;;;;;;7.40;2.22;;;9.20;99.20;;;;;;5061793;28;20025;-49
2022/02/04 16:52:01;;;;;;;8.32;2.75;;;9.20;99.20;;;;;;5056438;28;20029;-49
2022/02/04 16:54:27;;;;;;;2.03;1.02;;;9.20;99.20;;;;;;5062626;28;20027;-49
2022/02/04 16:56:54;;;;;;;1.70;1.33;;;9.20;99.30;;;;;;5063967;28;20025;-49
2022/02/04 16:59:20;;;;;;;2.85;1.67;;;9.20;99.20;;;;;;5061263;28;20160;-49
2022/02/04 17:01:47;;;;;;;2.60;1.50;;;9.20;99.30;;;;;;5060335;28;20052;-49
2022/02/04 17:04:14;;;;;;;2.05;1.30;;;9.20;99.20;;;;;;5059428;28;20037;-49
2022/02/04 17:06:45;;;;;;;1.05;0.95;;;9.20;99.20;;;;;;5057317;28;20028;-49
2022/02/04 17:11:51;;;;;;;3.22;0.65;;;9.20;99.30;;;;;;5061301;28;20314;-49
2022/02/04 17:14:17;;;;;;;1.08;0.85;;;9.20;99.30;;;;;;5060293;28;20064;-49
2022/02/04 17:16:43;;;;;;;0.40;0.40;;;9.20;99.20;;;;;;5061549;28;20056;-49
2022/02/04 17:19:10;;;;;;;1.02;0.70;;;9.20;99.20;;;;;;5062719;28;20024;-49
2022/02/04 17:21:37;;;;;;;0.77;0.52;;;9.20;99.20;;;;;;5055977;28;20040;-49
2022/02/04 17:24:02;;;;;;;1.52;1.00;;;9.20;99.20;;;;;;5060165;28;20048;-49
2022/02/04 17:26:28;;;;;;;4.25;1.58;;;9.20;99.50;;;;;;5063112;28;20029;-49
2022/02/04 17:28:54;;;;;;;0.73;0.40;;;9.20;99.10;;;;;;5061095;28;20013;-49
2022/02/04 17:31:21;;;;;;;1.23;0.63;;;9.20;99.10;;;;;;5059842;28;20079;-49
2022/02/04 17:33:46;;;;;;;0.40;0.40;;;9.10;99.10;;;;;;5062299;28;20047;-49
2022/02/04 17:36:12;;;;;;;0.70;0.70;;;9.10;99.10;;;;;;5055963;28;20170;-49
2022/02/04 17:38:39;;;;;;;0.60;0.60;;;9.10;99.00;;;;;;5062494;28;20039;-49
2022/02/04 17:41:07;;;;;;;0.20;0.20;;;9.10;99.00;;;;;;5058889;28;20021;-49
2022/02/04 17:43:33;;;;;;;1.05;0.82;;;9.10;99.00;;;;;;5059221;28;20040;-49
2022/02/04 17:45:59;;;;;;;1.70;0.88;;;9.10;98.90;;;;;;5059924;28;20025;-49
2022/02/04 17:48:32;;;;;;;1.48;0.82;;;9.10;99.00;;;;;;5060616;28;20113;-49
2022/02/04 17:51:09;;;;;;;0.43;0.43;;;9.10;99.00;;;;;;5059177;28;20034;-49
2022/02/04 17:53:49;;;;;;;0.40;0.40;;;9.10;98.90;;;;;;5055146;28;20029;-49
2022/02/04 17:57:02;;;;;;;1.08;0.77;;;9.10;98.80;;;;;;5059877;28;20060;-49
2022/02/04 18:02:07;;;;;;;0.47;0.45;;;9.10;98.90;;;;;;5060376;28;20036;-49
2022/02/04 18:07:25;;;;;;;1.10;1.00;;;9.10;98.70;;;;;;5057570;28;20051;-49
2022/02/04 18:09:52;;;;;;;0.73;0.50;;;9.10;98.70;;;;;;5061761;28;20032;-49
2022/02/04 18:12:23;;;;;;;0.40;0.40;;;9.10;98.70;;;;;;5062205;28;20012;-49
2022/02/04 18:14:50;;;;;;;0.47;0.47;;;9.10;99.00;;;;;;5061440;28;20430;-49
2022/02/04 18:17:17;;;;;;;2.38;0.73;;;9.10;98.70;;;;;;5061836;28;20358;-49
2022/02/04 18:19:43;;;;;;;0.85;0.80;;;9.10;98.70;;;;;;5060477;28;20037;-49
2022/02/04 18:22:09;;;;;;;0.45;0.45;;;9.10;98.70;;;;;;5059110;28;20146;-49
2022/02/04 18:24:37;;;;;;;0.50;0.50;;;9.10;98.70;;;;;;5061270;28;20037;-49
2022/02/04 18:27:07;;;;;;;0.63;0.60;;;9.10;98.80;;;;;;5064101;28;20503;-49
2022/02/04 18:29:33;;;;;;;0.70;0.70;;;9.10;98.70;;;;;;5060888;28;20036;-49
2022/02/04 18:31:59;;;;;;;0.50;0.50;;;9.10;98.70;;;;;;5061464;28;20472;-49
2022/02/04 18:34:24;;;;;;;1.15;0.70;;;9.10;98.80;;;;;;5062141;28;20036;-49
2022/02/04 18:36:53;;;;;;;0.30;0.30;;;9.10;98.70;;;;;;5058962;28;20055;-49
2022/02/04 18:39:35;;;;;;;1.20;0.65;;;9.10;98.70;;;;;;5062245;28;20700;-49
2022/02/04 18:44:51;;;;;;;0.68;0.68;;;9.10;98.70;;;;;;5064214;28;20384;-49
2022/02/04 18:47:32;;;;;;;1.45;1.25;;;9.10;98.70;;;;;;5060766;28;20031;-49
2022/02/04 18:50:08;;;;;;;;;;;9.00;98.80;;;;;;5062677;28;20029;-49
2022/02/04 18:52:40;;;;;;;0.50;0.50;;;9.00;98.60;;;;;;5056095;28;19959;-49
2022/02/04 18:55:39;;;;;;;0.50;0.50;;;9.00;98.60;;;;;;5058699;28;20442;-49
2022/02/04 18:57:52;;;;;;;0.80;0.80;;;9.00;98.60;;;;;;5061881;28;20028;-49
2022/02/04 19:00:19;;;;;;;2.20;0.70;;;9.00;98.70;;;;;;5061195;28;20465;-49
2022/02/04 19:02:50;;;;;;;0.30;0.30;;;9.00;98.70;;;;;;5054312;28;20029;-49
2022/02/04 19:05:29;;;;;;;0.75;0.75;;;9.00;98.60;;;;;;5052173;28;20029;-49
2022/02/04 19:10:27;;;;;;;0.50;0.45;;;9.00;98.60;;;;;;5058689;28;20052;-49
2022/02/04 19:16:09;;;;;;;0.63;0.52;;;9.00;98.60;;;;;;5060731;28;20509;-49
2022/02/04 19:18:14;;;;;;;0.32;0.32;;;9.00;98.60;;;;;;5067329;28;20459;-49
2022/02/04 19:20:44;;;;;;;0.30;0.30;;;9.00;98.60;;;;;;5064588;28;20032;-49
2022/02/04 19:23:18;;;;;;;0.82;0.80;;;9.00;98.60;;;;;;5058864;28;20406;-49
2022/02/04 19:25:44;;;;;;;3.88;0.75;;;9.00;98.60;;;;;;5062994;28;20412;-49
2022/02/04 19:28:11;;;;;;;0.45;0.45;;;9.00;98.60;;;;;;5061696;28;20503;-49
2022/02/04 19:30:46;;;;;;;0.80;0.60;;;9.00;98.60;;;;;;5062063;28;20473;-49
2022/02/04 19:33:12;;;;;;;0.30;0.30;;;9.00;98.60;;;;;;5058268;28;20409;-49
2022/02/04 19:35:39;;;;;;;0.35;0.35;;;9.00;98.60;;;;;;5061723;28;20025;-49
2022/02/04 19:38:06;;;;;;;0.32;0.32;;;9.00;98.70;;;;;;5061159;28;20101;-49
2022/02/04 19:40:32;;;;;;;2.05;0.50;;;9.00;98.60;;;;;;5059791;28;20031;-49
2022/02/04 19:42:58;;;;;;;0.43;0.43;;;9.00;98.70;;;;;;5063202;28;20021;-49
2022/02/04 19:45:30;;;;;;;0.40;0.40;;;9.00;98.60;;;;;;5065806;28;20032;-49
2022/02/04 19:48:01;;;;;;;3.35;0.73;;;9.00;98.60;;;;;;5063958;28;20028;-49
2022/02/04 20:25:32;;;;;;;0.32;0.32;;;9.00;98.60;;;;;;5070373;28;20048;-49
2022/02/04 20:28:05;;;;;;;0.57;0.57;;;9.00;98.60;;;;;;5069998;28;20444;-49
2022/02/04 20:30:31;;;;;;;0.60;0.60;;;9.00;98.60;;;;;;5063773;28;20025;-49
2022/02/04 20:32:56;;;;;;;2.08;0.68;;;9.00;98.60;;;;;;5062104;28;20025;-49
2022/02/04 20:35:22;;;;;;;0.63;0.45;;;9.00;98.60;;;;;;5061410;28;20028;-49
2022/02/04 20:37:50;;;;;;;0.28;0.28;;;9.00;98.50;;;;;;5058177;28;20612;-49